Parks, AZ (86018)

11:30 AM MST on July 25, 2016 (GMT -0700)
APRSWXNET | | Change Station

Elev 6794 ft 35.17 °N, 111.95 °W | Updated 17 minutes ago

Scattered Clouds
Scattered Clouds
81 °F
Feels Like 81 °F
N
2
Wind Variable Wind from ESE
Gusts 8.0 mph

Today
High -- | Low -- °F
--% Chance of Precip.
Yesterday
High -- | Low -- °F
Precip. -- in
Pressure 30.42 in
Visibility 9.0 miles
Clouds Scattered Clouds 7000 ft
Heat Index 81 °F
Dew Point 55 °F
Humidity 41%
Rainfall in
Snow Depth Not available.
5:31 AM 7:36 PM
Waning Gibbous, 63% visible
METAR KCMR 251815Z AUTO 26009KT 9SM SCT070 28/10 A3042 RMK AO2
Pressure 30.42 in
Visibility 9.0 miles
Clouds Scattered Clouds 7000 ft
Heat Index 81 °F
Dew Point 55 °F
Humidity 41%
Rainfall in
Snow Depth Not available.
5:31 AM 7:36 PM
Waning Gibbous, 63% visible
METAR KCMR 251815Z AUTO 26009KT 9SM SCT070 28/10 A3042 RMK AO2

10-Day Weather Forecast

Almanac

Astronomy

Jul. 25, 2016 Rise Set
Actual Time
Civil Twilight
Nautical Twilight
Astronomical Twilight
Moon
Length of Visible Light
Length of Day
Tomorrow will be .
, % of the Moon is Illuminated

Today's Extremes

State Highs State Lows

Community

WunderPhotos

Upload Photos

1,927,365 photos uploaded!

WunderBlog® & News

Nearby

Air Quality

  Air Quality AQ Index Pollutant
Not available.

Snow Depth

Station Depth Elevation

Earthquake Activity

City Distance Mag. Time & Date
Minimum magnitude displayed is 2.5.

Coastal Water Temperatures

Place Temperature

Stations

Nearby Weather Stations

Station Location Temp. Windchill Dew Point Humidity Wind Precip. Elev Updated Type
                   

Watches & Warnings

There are currently no watches in effect.